PWSweather.com
Personal Weather Stations
Station Observations
WD4JKH
Forsyth, GA 31029

Forsyth, GA 31029

Lat: 33.033225, Lon: -83.927995

Elevation: 709

Station Type: Davis Vantage VUE

High Low Average
Temperature 74.1°F23.4°C 56.0°F13.3°C 66.8°F19.3°C
Dew Point 68.1°F20.1°C 48.1°F8.9°C 59.9°F15.5°C
Winds 6.7 mph 10.8 kmh Calm Calm 2.0 mph SW3.2 kmh SW
Wind Gusts 15.0 mph24.1 kmh 2.0 mph3.2 kmh 7.0 mph11.3 kmh
Humidity 99% 46% 81%
Pressure 29.87 in1011.5 mb 29.72 in1006.4 mb -
Precipitation 0.28 in7.1 mm - -
Hour Temp Dew Point Humidity Winds Wind Gusts Pressure Precip Precip Rate Daily Precip Total
12:02 AM 65.5°F18.6°C 64.9°F18.3°C 98% 2.3 mph S3.7 kmh S 10.0 mph16.1 kmh 29.77 in1008.1 mb 0.00 in0.0 mm 0.00 in0.0 mm 0.00 in0.0 mm
12:07 AM 65.5°F18.6°C 64.9°F18.3°C 98% 1.7 mph S2.7 kmh S 10.0 mph16.1 kmh 29.77 in1008.1 mb 0.00 in0.0 mm 0.00 in0.0 mm 0.00 in0.0 mm
12:12 AM 65.5°F18.6°C 64.9°F18.3°C 98% 2.3 mph SSW3.7 kmh SSW 8.0 mph12.9 kmh 29.76 in1007.8 mb 0.00 in0.0 mm 0.00 in0.0 mm 0.00 in0.0 mm
12:17 AM 65.5°F18.6°C 64.9°F18.3°C 98% 1.6 mph SW2.6 kmh SW 9.0 mph14.5 kmh 29.76 in1007.8 mb 0.00 in0.0 mm 0.00 in0.0 mm 0.00 in0.0 mm
12:22 AM 65.5°F18.6°C 64.9°F18.3°C 98% 1.8 mph SSW2.9 kmh SSW 13.0 mph20.9 kmh 29.76 in1007.8 mb 0.00 in0.0 mm 0.00 in0.0 mm 0.00 in0.0 mm
12:27 AM 65.5°F18.6°C 64.9°F18.3°C 98% 2.9 mph SW4.7 kmh SW 13.0 mph20.9 kmh 29.76 in1007.8 mb 0.00 in0.0 mm 0.00 in0.0 mm 0.00 in0.0 mm
12:32 AM 65.6°F18.7°C 65.0°F18.3°C 98% 3.2 mph S5.1 kmh S 13.0 mph20.9 kmh 29.76 in1007.8 mb 0.00 in0.0 mm 0.00 in0.0 mm 0.00 in0.0 mm
12:37 AM 65.5°F18.6°C 64.9°F18.3°C 98% 3.4 mph S5.5 kmh S 13.0 mph20.9 kmh 29.76 in1007.8 mb 0.00 in0.0 mm 0.00 in0.0 mm 0.00 in0.0 mm
12:42 AM 65.6°F18.7°C 65.0°F18.3°C 98% 2.5 mph S4.0 kmh S 11.0 mph17.7 kmh 29.75 in1007.5 mb 0.00 in0.0 mm 0.00 in0.0 mm 0.00 in0.0 mm
12:47 AM 65.6°F18.7°C 65.0°F18.3°C 98% 2.3 mph S3.7 kmh S 11.0 mph17.7 kmh 29.76 in1007.8 mb 0.00 in0.0 mm 0.00 in0.0 mm 0.00 in0.0 mm
12:52 AM 65.6°F18.7°C 65.0°F18.3°C 98% 2.9 mph S4.7 kmh S 10.0 mph16.1 kmh 29.76 in1007.8 mb 0.00 in0.0 mm 0.00 in0.0 mm 0.00 in0.0 mm
12:57 AM 65.6°F18.7°C 65.0°F18.3°C 98% 3.8 mph SW6.1 kmh SW 10.0 mph16.1 kmh 29.77 in1008.1 mb 0.03 in0.8 mm 0.36 in9.1 mm 0.03 in0.8 mm
01:02 AM 65.7°F18.7°C 65.1°F18.4°C 98% 1.6 mph SSW2.6 kmh SSW 10.0 mph16.1 kmh 29.76 in1007.8 mb 0.04 in1.0 mm 0.01 in0.3 mm 0.04 in1.0 mm
01:07 AM 65.7°F18.7°C 65.1°F18.4°C 98% 2.7 mph SSW4.3 kmh SSW 10.0 mph16.1 kmh 29.75 in1007.5 mb 0.04 in1.0 mm 0.00 in0.0 mm 0.04 in1.0 mm
01:12 AM 65.7°F18.7°C 65.1°F18.4°C 98% 1.7 mph SSW2.7 kmh SSW 10.0 mph16.1 kmh 29.75 in1007.5 mb 0.04 in1.0 mm 0.00 in0.0 mm 0.04 in1.0 mm
01:17 AM 65.7°F18.7°C 65.1°F18.4°C 98% 1.3 mph SSW2.1 kmh SSW 9.0 mph14.5 kmh 29.75 in1007.5 mb 0.04 in1.0 mm 0.00 in0.0 mm 0.04 in1.0 mm
01:22 AM 65.7°F18.7°C 65.4°F18.6°C 99% 2.5 mph S4.0 kmh S 9.0 mph14.5 kmh 29.75 in1007.5 mb 0.05 in1.3 mm 0.12 in3.0 mm 0.05 in1.3 mm
01:27 AM 65.8°F18.8°C 65.2°F18.4°C 98% 2.2 mph SSW3.5 kmh SSW 9.0 mph14.5 kmh 29.75 in1007.5 mb 0.05 in1.3 mm 0.00 in0.0 mm 0.05 in1.3 mm
01:32 AM 65.8°F18.8°C 65.5°F18.6°C 99% 2.7 mph S4.3 kmh S 9.0 mph14.5 kmh 29.75 in1007.5 mb 0.05 in1.3 mm 0.00 in0.0 mm 0.05 in1.3 mm
01:37 AM 65.8°F18.8°C 65.5°F18.6°C 99% 1.6 mph S2.6 kmh S 8.0 mph12.9 kmh 29.75 in1007.5 mb 0.05 in1.3 mm 0.00 in0.0 mm 0.05 in1.3 mm
01:42 AM 65.8°F18.8°C 65.5°F18.6°C 99% 1.9 mph S3.1 kmh S 8.0 mph12.9 kmh 29.74 in1007.1 mb 0.05 in1.3 mm 0.00 in0.0 mm 0.05 in1.3 mm
01:47 AM 65.8°F18.8°C 65.5°F18.6°C 99% 2.5 mph SSW4.0 kmh SSW 8.0 mph12.9 kmh 29.75 in1007.5 mb 0.05 in1.3 mm 0.00 in0.0 mm 0.05 in1.3 mm
01:52 AM 65.9°F18.8°C 65.6°F18.7°C 99% 2.0 mph SSW3.2 kmh SSW 7.0 mph11.3 kmh 29.74 in1007.1 mb 0.05 in1.3 mm 0.00 in0.0 mm 0.05 in1.3 mm
01:57 AM 65.9°F18.8°C 65.6°F18.7°C 99% 2.7 mph SSW4.3 kmh SSW 9.0 mph14.5 kmh 29.75 in1007.5 mb 0.02 in0.5 mm 0.00 in0.0 mm 0.05 in1.3 mm
02:01 AM 66.0°F18.9°C 65.7°F18.7°C 99% 2.1 mph S3.4 kmh S 9.0 mph14.5 kmh 29.75 in1007.5 mb 0.01 in0.3 mm 0.00 in0.0 mm 0.05 in1.3 mm
02:06 AM 65.9°F18.8°C 65.6°F18.7°C 99% 2.0 mph SSW3.2 kmh SSW 9.0 mph14.5 kmh 29.75 in1007.5 mb 0.01 in0.3 mm 0.00 in0.0 mm 0.05 in1.3 mm
02:11 AM 66.0°F18.9°C 65.7°F18.7°C 99% 2.1 mph S3.4 kmh S 9.0 mph14.5 kmh 29.75 in1007.5 mb 0.01 in0.3 mm 0.00 in0.0 mm 0.05 in1.3 mm
02:16 AM 66.0°F18.9°C 65.7°F18.7°C 99% 2.3 mph S3.7 kmh S 7.0 mph11.3 kmh 29.75 in1007.5 mb 0.01 in0.3 mm 0.00 in0.0 mm 0.05 in1.3 mm
02:21 AM 66.0°F18.9°C 65.7°F18.7°C 99% 1.5 mph S2.4 kmh S 7.0 mph11.3 kmh 29.75 in1007.5 mb 0.00 in0.0 mm 0.00 in0.0 mm 0.05 in1.3 mm
02:26 AM 66.0°F18.9°C 65.7°F18.7°C 99% 2.1 mph SSE3.4 kmh SSE 7.0 mph11.3 kmh 29.75 in1007.5 mb 0.00 in0.0 mm 0.00 in0.0 mm 0.05 in1.3 mm
02:31 AM 66.0°F18.9°C 65.7°F18.7°C 99% 1.7 mph S2.7 kmh S 7.0 mph11.3 kmh 29.75 in1007.5 mb 0.00 in0.0 mm 0.00 in0.0 mm 0.05 in1.3 mm
02:36 AM 66.0°F18.9°C 65.7°F18.7°C 99% 1.4 mph S2.3 kmh S 7.0 mph11.3 kmh 29.75 in1007.5 mb 0.00 in0.0 mm 0.00 in0.0 mm 0.05 in1.3 mm
02:41 AM 66.0°F18.9°C 65.7°F18.7°C 99% 1.8 mph SSW2.9 kmh SSW 7.0 mph11.3 kmh 29.76 in1007.8 mb 0.00 in0.0 mm 0.00 in0.0 mm 0.05 in1.3 mm
02:46 AM 66.0°F18.9°C 65.7°F18.7°C 99% 1.6 mph SSW2.6 kmh SSW 5.0 mph8.0 kmh 29.75 in1007.5 mb 0.00 in0.0 mm 0.00 in0.0 mm 0.05 in1.3 mm
02:51 AM 66.0°F18.9°C 65.7°F18.7°C 99% 1.1 mph SSE1.8 kmh SSE 7.0 mph11.3 kmh 29.76 in1007.8 mb 0.00 in0.0 mm 0.00 in0.0 mm 0.05 in1.3 mm
02:56 AM 66.0°F18.9°C 65.7°F18.7°C 99% 2.3 mph S3.7 kmh S 7.0 mph11.3 kmh 29.76 in1007.8 mb 0.00 in0.0 mm 0.00 in0.0 mm 0.05 in1.3 mm
03:01 AM 66.0°F18.9°C 65.7°F18.7°C 99% 2.3 mph SSW3.7 kmh SSW 7.0 mph11.3 kmh 29.76 in1007.8 mb 0.00 in0.0 mm 0.00 in0.0 mm 0.05 in1.3 mm
03:06 AM 66.1°F18.9°C 65.8°F18.8°C 99% 2.2 mph S3.5 kmh S 6.0 mph9.7 kmh 29.75 in1007.5 mb 0.01 in0.3 mm 0.12 in3.0 mm 0.06 in1.5 mm
03:11 AM 66.1°F18.9°C 65.8°F18.8°C 99% 1.4 mph SSW2.3 kmh SSW 6.0 mph9.7 kmh 29.76 in1007.8 mb 0.01 in0.3 mm 0.00 in0.0 mm 0.06 in1.5 mm
03:16 AM 66.1°F18.9°C 65.8°F18.8°C 99% 1.2 mph SW1.9 kmh SW 6.0 mph9.7 kmh 29.76 in1007.8 mb 0.01 in0.3 mm 0.00 in0.0 mm 0.06 in1.5 mm
03:21 AM 66.2°F19.0°C 65.9°F18.8°C 99% 2.0 mph S3.2 kmh S 7.0 mph11.3 kmh 29.76 in1007.8 mb 0.09 in2.3 mm 0.96 in24.4 mm 0.14 in3.6 mm
03:26 AM 66.2°F19.0°C 65.9°F18.8°C 99% 1.0 mph SW1.6 kmh SW 7.0 mph11.3 kmh 29.76 in1007.8 mb 0.10 in2.5 mm 0.12 in3.0 mm 0.15 in3.8 mm
03:31 AM 66.2°F19.0°C 65.9°F18.8°C 99% 1.8 mph SW2.9 kmh SW 7.0 mph11.3 kmh 29.76 in1007.8 mb 0.10 in2.5 mm 0.00 in0.0 mm 0.15 in3.8 mm
03:36 AM 66.3°F19.1°C 66.0°F18.9°C 99% 1.3 mph SE2.1 kmh SE 7.0 mph11.3 kmh 29.75 in1007.5 mb 0.11 in2.8 mm 0.12 in3.0 mm 0.17 in4.3 mm
03:41 AM 66.3°F19.1°C 66.0°F18.9°C 99% 2.3 mph S3.7 kmh S 5.0 mph8.0 kmh 29.75 in1007.5 mb 0.17 in4.3 mm 0.72 in18.3 mm 0.22 in5.6 mm
03:46 AM 66.3°F19.1°C 66.0°F18.9°C 99% 1.6 mph SW2.6 kmh SW 5.0 mph8.0 kmh 29.75 in1007.5 mb 0.20 in5.1 mm 0.36 in9.1 mm 0.25 in6.4 mm
03:51 AM 66.4°F19.1°C 66.1°F18.9°C 99% 1.9 mph SSW3.1 kmh SSW 4.0 mph6.4 kmh 29.75 in1007.5 mb 0.20 in5.1 mm 0.00 in0.0 mm 0.25 in6.4 mm
03:56 AM 66.4°F19.1°C 66.1°F18.9°C 99% 1.6 mph SW2.6 kmh SW 4.0 mph6.4 kmh 29.75 in1007.5 mb 0.20 in5.1 mm 0.00 in0.0 mm 0.25 in6.4 mm
04:01 AM 66.4°F19.1°C 66.1°F18.9°C 99% 1.0 mph SW1.6 kmh SW 4.0 mph6.4 kmh 29.75 in1007.5 mb 0.20 in5.1 mm 0.00 in0.0 mm 0.25 in6.4 mm
04:06 AM 66.4°F19.1°C 66.1°F18.9°C 99% 1.2 mph SSW1.9 kmh SSW 4.0 mph6.4 kmh 29.75 in1007.5 mb 0.19 in4.8 mm 0.00 in0.0 mm 0.25 in6.4 mm
04:11 AM 66.4°F19.1°C 66.1°F18.9°C 99% 1.3 mph S2.1 kmh S 4.0 mph6.4 kmh 29.75 in1007.5 mb 0.19 in4.8 mm 0.00 in0.0 mm 0.25 in6.4 mm
04:16 AM 66.5°F19.2°C 66.2°F19.0°C 99% 1.4 mph S2.3 kmh S 4.0 mph6.4 kmh 29.74 in1007.1 mb 0.19 in4.8 mm 0.00 in0.0 mm 0.25 in6.4 mm
04:21 AM 66.5°F19.2°C 66.2°F19.0°C 99% 1.1 mph SSW1.8 kmh SSW 4.0 mph6.4 kmh 29.74 in1007.1 mb 0.11 in2.8 mm 0.00 in0.0 mm 0.25 in6.4 mm
04:26 AM 66.5°F19.2°C 66.2°F19.0°C 99% 1.3 mph S2.1 kmh S 4.0 mph6.4 kmh 29.73 in1006.8 mb 0.10 in2.5 mm 0.00 in0.0 mm 0.25 in6.4 mm
04:31 AM 66.5°F19.2°C 66.2°F19.0°C 99% 1.5 mph SSW2.4 kmh SSW 3.0 mph4.8 kmh 29.73 in1006.8 mb 0.10 in2.5 mm 0.00 in0.0 mm 0.25 in6.4 mm
04:36 AM 66.5°F19.2°C 66.2°F19.0°C 99% 1.4 mph SSE2.3 kmh SSE 4.0 mph6.4 kmh 29.73 in1006.8 mb 0.07 in1.8 mm 0.00 in0.0 mm 0.25 in6.4 mm
04:41 AM 66.5°F19.2°C 66.2°F19.0°C 99% 1.5 mph S2.4 kmh S 4.0 mph6.4 kmh 29.72 in1006.4 mb 0.03 in0.8 mm 0.00 in0.0 mm 0.25 in6.4 mm
04:46 AM 66.4°F19.1°C 66.1°F18.9°C 99% 1.4 mph S2.3 kmh S 4.0 mph6.4 kmh 29.72 in1006.4 mb 0.00 in0.0 mm 0.00 in0.0 mm 0.25 in6.4 mm
04:51 AM 66.4°F19.1°C 66.1°F18.9°C 99% 1.8 mph S2.9 kmh S 3.0 mph4.8 kmh 29.72 in1006.4 mb 0.00 in0.0 mm 0.00 in0.0 mm 0.25 in6.4 mm
04:56 AM 66.4°F19.1°C 66.1°F18.9°C 99% 1.0 mph SSE1.6 kmh SSE 3.0 mph4.8 kmh 29.72 in1006.4 mb 0.00 in0.0 mm 0.00 in0.0 mm 0.25 in6.4 mm
05:01 AM 66.4°F19.1°C 66.1°F18.9°C 99% 1.3 mph S2.1 kmh S 4.0 mph6.4 kmh 29.72 in1006.4 mb 0.00 in0.0 mm 0.00 in0.0 mm 0.25 in6.4 mm
05:06 AM 66.4°F19.1°C 66.1°F18.9°C 99% 2.1 mph SSW3.4 kmh SSW 4.0 mph6.4 kmh 29.72 in1006.4 mb 0.00 in0.0 mm 0.00 in0.0 mm 0.25 in6.4 mm
05:11 AM 66.4°F19.1°C 66.1°F18.9°C 99% 1.6 mph SSE2.6 kmh SSE 4.0 mph6.4 kmh 29.73 in1006.8 mb 0.00 in0.0 mm 0.00 in0.0 mm 0.25 in6.4 mm
05:16 AM 66.4°F19.1°C 66.1°F18.9°C 99% 1.1 mph SW1.8 kmh SW 4.0 mph6.4 kmh 29.73 in1006.8 mb 0.00 in0.0 mm 0.00 in0.0 mm 0.25 in6.4 mm
05:21 AM 66.4°F19.1°C 66.1°F18.9°C 99% 1.1 mph S1.8 kmh S 4.0 mph6.4 kmh 29.73 in1006.8 mb 0.00 in0.0 mm 0.00 in0.0 mm 0.25 in6.4 mm
05:26 AM 66.4°F19.1°C 66.1°F18.9°C 99% 1.2 mph S1.9 kmh S 4.0 mph6.4 kmh 29.74 in1007.1 mb 0.00 in0.0 mm 0.00 in0.0 mm 0.25 in6.4 mm
05:31 AM 66.4°F19.1°C 66.1°F18.9°C 99% 1.3 mph S2.1 kmh S 3.0 mph4.8 kmh 29.74 in1007.1 mb 0.01 in0.3 mm 0.12 in3.0 mm 0.26 in6.6 mm
05:36 AM 66.4°F19.1°C 66.1°F18.9°C 99% 2.1 mph S3.4 kmh S 4.0 mph6.4 kmh 29.75 in1007.5 mb 0.01 in0.3 mm 0.00 in0.0 mm 0.26 in6.6 mm
05:41 AM 66.4°F19.1°C 66.1°F18.9°C 99% 1.0 mph SSW1.6 kmh SSW 4.0 mph6.4 kmh 29.75 in1007.5 mb 0.01 in0.3 mm 0.00 in0.0 mm 0.26 in6.6 mm
05:46 AM 66.4°F19.1°C 66.1°F18.9°C 99% 1.5 mph SW2.4 kmh SW 4.0 mph6.4 kmh 29.75 in1007.5 mb 0.01 in0.3 mm 0.00 in0.0 mm 0.26 in6.6 mm
05:51 AM 66.4°F19.1°C 66.1°F18.9°C 99% 1.5 mph SSW2.4 kmh SSW 4.0 mph6.4 kmh 29.75 in1007.5 mb 0.01 in0.3 mm 0.00 in0.0 mm 0.26 in6.6 mm
05:56 AM 66.4°F19.1°C 66.1°F18.9°C 99% 1.4 mph SSW2.3 kmh SSW 3.0 mph4.8 kmh 29.76 in1007.8 mb 0.01 in0.3 mm 0.00 in0.0 mm 0.26 in6.6 mm
06:01 AM 66.4°F19.1°C 66.1°F18.9°C 99% 2.3 mph SW3.7 kmh SW 6.0 mph9.7 kmh 29.76 in1007.8 mb 0.01 in0.3 mm 0.00 in0.0 mm 0.26 in6.6 mm
06:06 AM 66.4°F19.1°C 66.1°F18.9°C 99% 2.1 mph SSW3.4 kmh SSW 6.0 mph9.7 kmh 29.76 in1007.8 mb 0.01 in0.3 mm 0.00 in0.0 mm 0.26 in6.6 mm
06:11 AM 66.4°F19.1°C 66.1°F18.9°C 99% 1.7 mph SW2.7 kmh SW 6.0 mph9.7 kmh 29.76 in1007.8 mb 0.02 in0.5 mm 0.12 in3.0 mm 0.27 in6.9 mm
06:16 AM 66.4°F19.1°C 66.1°F18.9°C 99% 1.6 mph SW2.6 kmh SW 6.0 mph9.7 kmh 29.76 in1007.8 mb 0.02 in0.5 mm 0.00 in0.0 mm 0.27 in6.9 mm
06:21 AM 66.5°F19.2°C 66.2°F19.0°C 99% 4.2 mph SW6.8 kmh SW 9.0 mph14.5 kmh 29.76 in1007.8 mb 0.02 in0.5 mm 0.00 in0.0 mm 0.27 in6.9 mm
06:26 AM 66.6°F19.2°C 66.3°F19.1°C 99% 1.8 mph SW2.9 kmh SW 9.0 mph14.5 kmh 29.76 in1007.8 mb 0.03 in0.8 mm 0.12 in3.0 mm 0.28 in7.1 mm
06:31 AM 66.5°F19.2°C 66.2°F19.0°C 99% 2.0 mph SW3.2 kmh SW 9.0 mph14.5 kmh 29.75 in1007.5 mb 0.02 in0.5 mm 0.00 in0.0 mm 0.28 in7.1 mm
06:36 AM 66.5°F19.2°C 66.2°F19.0°C 99% 1.5 mph SW2.4 kmh SW 9.0 mph14.5 kmh 29.76 in1007.8 mb 0.02 in0.5 mm 0.00 in0.0 mm 0.28 in7.1 mm
06:41 AM 66.6°F19.2°C 66.3°F19.1°C 99% 2.2 mph SSW3.5 kmh SSW 7.0 mph11.3 kmh 29.76 in1007.8 mb 0.02 in0.5 mm 0.00 in0.0 mm 0.28 in7.1 mm
06:46 AM 66.5°F19.2°C 66.2°F19.0°C 99% 1.6 mph SW2.6 kmh SW 7.0 mph11.3 kmh 29.76 in1007.8 mb 0.02 in0.5 mm 0.00 in0.0 mm 0.28 in7.1 mm
06:51 AM 66.5°F19.2°C 66.2°F19.0°C 99% 1.3 mph S2.1 kmh S 7.0 mph11.3 kmh 29.77 in1008.1 mb 0.02 in0.5 mm 0.00 in0.0 mm 0.28 in7.1 mm
06:56 AM 66.5°F19.2°C 66.2°F19.0°C 99% 1.9 mph SSE3.1 kmh SSE 7.0 mph11.3 kmh 29.77 in1008.1 mb 0.02 in0.5 mm 0.00 in0.0 mm 0.28 in7.1 mm
07:00 AM 66.5°F19.2°C 66.2°F19.0°C 99% 1.8 mph S2.9 kmh S 4.0 mph6.4 kmh 29.77 in1008.1 mb 0.02 in0.5 mm 0.00 in0.0 mm 0.28 in7.1 mm
07:05 AM 66.5°F19.2°C 66.2°F19.0°C 99% 2.3 mph SSE3.7 kmh SSE 4.0 mph6.4 kmh 29.77 in1008.1 mb 0.02 in0.5 mm 0.00 in0.0 mm 0.28 in7.1 mm
07:10 AM 66.5°F19.2°C 66.2°F19.0°C 99% 1.7 mph SW2.7 kmh SW 4.0 mph6.4 kmh 29.76 in1007.8 mb 0.01 in0.3 mm 0.00 in0.0 mm 0.28 in7.1 mm
07:15 AM 66.6°F19.2°C 66.3°F19.1°C 99% 1.8 mph S2.9 kmh S 4.0 mph6.4 kmh 29.77 in1008.1 mb 0.01 in0.3 mm 0.00 in0.0 mm 0.28 in7.1 mm
07:20 AM 66.6°F19.2°C 66.3°F19.1°C 99% 1.1 mph SSW1.8 kmh SSW 6.0 mph9.7 kmh 29.77 in1008.1 mb 0.01 in0.3 mm 0.00 in0.0 mm 0.28 in7.1 mm
07:25 AM 66.5°F19.2°C 66.2°F19.0°C 99% 1.1 mph SSE1.8 kmh SSE 6.0 mph9.7 kmh 29.77 in1008.1 mb 0.00 in0.0 mm 0.00 in0.0 mm 0.28 in7.1 mm
07:30 AM 66.5°F19.2°C 66.2°F19.0°C 99% 1.5 mph SSW2.4 kmh SSW 6.0 mph9.7 kmh 29.76 in1007.8 mb 0.00 in0.0 mm 0.00 in0.0 mm 0.28 in7.1 mm
07:35 AM 66.5°F19.2°C 66.2°F19.0°C 99% 1.6 mph S2.6 kmh S 6.0 mph9.7 kmh 29.76 in1007.8 mb 0.00 in0.0 mm 0.00 in0.0 mm 0.28 in7.1 mm
07:40 AM 66.5°F19.2°C 66.2°F19.0°C 99% 1.2 mph S1.9 kmh S 4.0 mph6.4 kmh 29.76 in1007.8 mb 0.00 in0.0 mm 0.00 in0.0 mm 0.28 in7.1 mm
07:45 AM 66.5°F19.2°C 66.2°F19.0°C 99% 1.5 mph SW2.4 kmh SW 5.0 mph8.0 kmh 29.76 in1007.8 mb 0.00 in0.0 mm 0.00 in0.0 mm 0.28 in7.1 mm
07:50 AM 66.5°F19.2°C 66.2°F19.0°C 99% 1.2 mph SW1.9 kmh SW 5.0 mph8.0 kmh 29.76 in1007.8 mb 0.00 in0.0 mm 0.00 in0.0 mm 0.28 in7.1 mm
07:55 AM 66.5°F19.2°C 66.2°F19.0°C 99% 1.0 mph SSW1.6 kmh SSW 5.0 mph8.0 kmh 29.75 in1007.5 mb 0.00 in0.0 mm 0.00 in0.0 mm 0.28 in7.1 mm
08:00 AM 66.5°F19.2°C 66.2°F19.0°C 99% 1.0 mph SW1.6 kmh SW 5.0 mph8.0 kmh 29.76 in1007.8 mb 0.00 in0.0 mm 0.00 in0.0 mm 0.28 in7.1 mm
08:05 AM 66.4°F19.1°C 66.1°F18.9°C 99% 1.2 mph SSW1.9 kmh SSW 4.0 mph6.4 kmh 29.76 in1007.8 mb 0.00 in0.0 mm 0.00 in0.0 mm 0.28 in7.1 mm
08:10 AM 66.4°F19.1°C 66.1°F18.9°C 99% 1.7 mph SSE2.7 kmh SSE 4.0 mph6.4 kmh 29.76 in1007.8 mb 0.00 in0.0 mm 0.00 in0.0 mm 0.28 in7.1 mm
08:15 AM 66.4°F19.1°C 66.1°F18.9°C 99% 2.6 mph S4.2 kmh S 6.0 mph9.7 kmh 29.76 in1007.8 mb 0.00 in0.0 mm 0.00 in0.0 mm 0.28 in7.1 mm
08:20 AM 66.3°F19.1°C 66.0°F18.9°C 99% 2.6 mph SW4.2 kmh SW 7.0 mph11.3 kmh 29.76 in1007.8 mb 0.00 in0.0 mm 0.00 in0.0 mm 0.28 in7.1 mm
08:25 AM 66.4°F19.1°C 66.1°F18.9°C 99% 1.5 mph SSW2.4 kmh SSW 7.0 mph11.3 kmh 29.76 in1007.8 mb 0.00 in0.0 mm 0.00 in0.0 mm 0.28 in7.1 mm
08:30 AM 66.4°F19.1°C 66.1°F18.9°C 99% 1.0 mph S1.6 kmh S 7.0 mph11.3 kmh 29.76 in1007.8 mb 0.00 in0.0 mm 0.00 in0.0 mm 0.28 in7.1 mm
08:35 AM 66.4°F19.1°C 66.1°F18.9°C 99% 1.0 mph SW1.6 kmh SW 7.0 mph11.3 kmh 29.76 in1007.8 mb 0.00 in0.0 mm 0.00 in0.0 mm 0.28 in7.1 mm
08:40 AM 66.4°F19.1°C 66.1°F18.9°C 99% 1.3 mph SW2.1 kmh SW 6.0 mph9.7 kmh 29.76 in1007.8 mb 0.00 in0.0 mm 0.00 in0.0 mm 0.28 in7.1 mm
08:45 AM 66.5°F19.2°C 66.2°F19.0°C 99% 1.0 mph SSW1.6 kmh SSW 6.0 mph9.7 kmh 29.76 in1007.8 mb 0.00 in0.0 mm 0.00 in0.0 mm 0.28 in7.1 mm
08:50 AM 66.6°F19.2°C 66.3°F19.1°C 99% 2.6 mph WSW4.2 kmh WSW 7.0 mph11.3 kmh 29.76 in1007.8 mb 0.00 in0.0 mm 0.00 in0.0 mm 0.28 in7.1 mm
08:55 AM 66.8°F19.3°C 66.5°F19.2°C 99% Calm Calm 7.0 mph11.3 kmh 29.76 in1007.8 mb 0.00 in0.0 mm 0.00 in0.0 mm 0.28 in7.1 mm
09:00 AM 66.9°F19.4°C 66.6°F19.2°C 99% 1.4 mph SW2.3 kmh SW 7.0 mph11.3 kmh 29.76 in1007.8 mb 0.00 in0.0 mm 0.00 in0.0 mm 0.28 in7.1 mm
09:05 AM 66.9°F19.4°C 66.6°F19.2°C 99% 1.0 mph SW1.6 kmh SW 7.0 mph11.3 kmh 29.77 in1008.1 mb 0.00 in0.0 mm 0.00 in0.0 mm 0.28 in7.1 mm
09:10 AM 67.1°F19.5°C 66.8°F19.3°C 99% 2.6 mph SW4.2 kmh SW 4.0 mph6.4 kmh 29.77 in1008.1 mb 0.00 in0.0 mm 0.00 in0.0 mm 0.28 in7.1 mm
09:15 AM 67.3°F19.6°C 67.0°F19.4°C 99% 2.3 mph SW3.7 kmh SW 5.0 mph8.0 kmh 29.78 in1008.5 mb 0.00 in0.0 mm 0.00 in0.0 mm 0.28 in7.1 mm
09:20 AM 67.6°F19.8°C 67.3°F19.6°C 99% 2.5 mph WSW4.0 kmh WSW 7.0 mph11.3 kmh 29.78 in1008.5 mb 0.00 in0.0 mm 0.00 in0.0 mm 0.28 in7.1 mm
09:25 AM 67.8°F19.9°C 67.5°F19.7°C 99% 2.0 mph SW3.2 kmh SW 8.0 mph12.9 kmh 29.79 in1008.8 mb 0.00 in0.0 mm 0.00 in0.0 mm 0.28 in7.1 mm
09:30 AM 67.9°F19.9°C 67.6°F19.8°C 99% 3.2 mph W5.1 kmh W 8.0 mph12.9 kmh 29.79 in1008.8 mb 0.00 in0.0 mm 0.00 in0.0 mm 0.28 in7.1 mm
09:35 AM 67.9°F19.9°C 67.6°F19.8°C 99% 2.8 mph SW4.5 kmh SW 8.0 mph12.9 kmh 29.80 in1009.1 mb 0.00 in0.0 mm 0.00 in0.0 mm 0.28 in7.1 mm
09:40 AM 68.0°F20.0°C 67.7°F19.8°C 99% 2.4 mph SW3.9 kmh SW 8.0 mph12.9 kmh 29.80 in1009.1 mb 0.00 in0.0 mm 0.00 in0.0 mm 0.28 in7.1 mm
09:46 AM 68.0°F20.0°C 67.7°F19.8°C 99% 2.2 mph WSW3.5 kmh WSW 7.0 mph11.3 kmh 29.81 in1009.5 mb 0.00 in0.0 mm 0.00 in0.0 mm 0.28 in7.1 mm
09:50 AM 68.0°F20.0°C 67.7°F19.8°C 99% 1.8 mph SW2.9 kmh SW 8.0 mph12.9 kmh 29.80 in1009.1 mb 0.00 in0.0 mm 0.00 in0.0 mm 0.28 in7.1 mm
09:56 AM 68.0°F20.0°C 67.7°F19.8°C 99% 3.3 mph SW5.3 kmh SW 8.0 mph12.9 kmh 29.81 in1009.5 mb 0.00 in0.0 mm 0.00 in0.0 mm 0.28 in7.1 mm
10:00 AM 68.1°F20.1°C 67.5°F19.7°C 98% 2.0 mph SW3.2 kmh SW 8.0 mph12.9 kmh 29.81 in1009.5 mb 0.00 in0.0 mm 0.00 in0.0 mm 0.28 in7.1 mm
10:06 AM 68.1°F20.1°C 67.5°F19.7°C 98% 2.3 mph SW3.7 kmh SW 8.0 mph12.9 kmh 29.81 in1009.5 mb 0.00 in0.0 mm 0.00 in0.0 mm 0.28 in7.1 mm
10:11 AM 68.3°F20.2°C 67.7°F19.8°C 98% 1.3 mph SW2.1 kmh SW 8.0 mph12.9 kmh 29.82 in1009.8 mb 0.00 in0.0 mm 0.00 in0.0 mm 0.28 in7.1 mm
10:16 AM 68.4°F20.2°C 67.8°F19.9°C 98% 1.0 mph SW1.6 kmh SW 8.0 mph12.9 kmh 29.82 in1009.8 mb 0.00 in0.0 mm 0.00 in0.0 mm 0.28 in7.1 mm
10:21 AM 68.5°F20.3°C 67.9°F19.9°C 98% 1.8 mph SW2.9 kmh SW 6.0 mph9.7 kmh 29.82 in1009.8 mb 0.00 in0.0 mm 0.00 in0.0 mm 0.28 in7.1 mm
10:26 AM 68.5°F20.3°C 67.6°F19.8°C 97% 2.5 mph SW4.0 kmh SW 6.0 mph9.7 kmh 29.82 in1009.8 mb 0.00 in0.0 mm 0.00 in0.0 mm 0.28 in7.1 mm
10:31 AM 68.6°F20.3°C 67.7°F19.8°C 97% 2.0 mph SW3.2 kmh SW 6.0 mph9.7 kmh 29.83 in1010.2 mb 0.00 in0.0 mm 0.00 in0.0 mm 0.28 in7.1 mm
10:36 AM 68.7°F20.4°C 67.5°F19.7°C 96% 2.0 mph WSW3.2 kmh WSW 6.0 mph9.7 kmh 29.83 in1010.2 mb 0.00 in0.0 mm 0.00 in0.0 mm 0.28 in7.1 mm
10:41 AM 68.7°F20.4°C 67.5°F19.7°C 96% 2.2 mph SW3.5 kmh SW 6.0 mph9.7 kmh 29.82 in1009.8 mb 0.00 in0.0 mm 0.00 in0.0 mm 0.28 in7.1 mm
10:46 AM 68.8°F20.4°C 67.6°F19.8°C 96% 2.1 mph SW3.4 kmh SW 6.0 mph9.7 kmh 29.83 in1010.2 mb 0.00 in0.0 mm 0.00 in0.0 mm 0.28 in7.1 mm
10:51 AM 68.9°F20.5°C 67.7°F19.8°C 96% 1.4 mph SSW2.3 kmh SSW 5.0 mph8.0 kmh 29.83 in1010.2 mb 0.00 in0.0 mm 0.00 in0.0 mm 0.28 in7.1 mm
10:56 AM 68.9°F20.5°C 67.7°F19.8°C 96% 1.2 mph SSW1.9 kmh SSW 5.0 mph8.0 kmh 29.83 in1010.2 mb 0.00 in0.0 mm 0.00 in0.0 mm 0.28 in7.1 mm
11:01 AM 68.9°F20.5°C 67.7°F19.8°C 96% 1.0 mph SW1.6 kmh SW 5.0 mph8.0 kmh 29.83 in1010.2 mb 0.00 in0.0 mm 0.00 in0.0 mm 0.28 in7.1 mm
11:06 AM 69.0°F20.6°C 67.8°F19.9°C 96% 1.4 mph SW2.3 kmh SW 4.0 mph6.4 kmh 29.83 in1010.2 mb 0.00 in0.0 mm 0.00 in0.0 mm 0.28 in7.1 mm
11:11 AM 69.1°F20.6°C 67.6°F19.8°C 95% 2.2 mph SW3.5 kmh SW 5.0 mph8.0 kmh 29.83 in1010.2 mb 0.00 in0.0 mm 0.00 in0.0 mm 0.28 in7.1 mm
11:16 AM 69.3°F20.7°C 67.8°F19.9°C 95% 3.0 mph SW4.8 kmh SW 6.0 mph9.7 kmh 29.82 in1009.8 mb 0.00 in0.0 mm 0.00 in0.0 mm 0.28 in7.1 mm
11:21 AM 69.4°F20.8°C 67.9°F19.9°C 95% 1.9 mph SW3.1 kmh SW 6.0 mph9.7 kmh 29.82 in1009.8 mb 0.00 in0.0 mm 0.00 in0.0 mm 0.28 in7.1 mm
11:26 AM 69.6°F20.9°C 68.1°F20.1°C 95% 2.2 mph SW3.5 kmh SW 8.0 mph12.9 kmh 29.83 in1010.2 mb 0.00 in0.0 mm 0.00 in0.0 mm 0.28 in7.1 mm
11:31 AM 69.5°F20.8°C 67.7°F19.8°C 94% 2.0 mph SW3.2 kmh SW 8.0 mph12.9 kmh 29.82 in1009.8 mb 0.00 in0.0 mm 0.00 in0.0 mm 0.28 in7.1 mm
11:36 AM 69.5°F20.8°C 67.7°F19.8°C 94% 1.0 mph SW1.6 kmh SW 8.0 mph12.9 kmh 29.82 in1009.8 mb 0.00 in0.0 mm 0.00 in0.0 mm 0.28 in7.1 mm
11:41 AM 69.6°F20.9°C 67.8°F19.9°C 94% 2.7 mph W4.3 kmh W 8.0 mph12.9 kmh 29.82 in1009.8 mb 0.00 in0.0 mm 0.00 in0.0 mm 0.28 in7.1 mm
11:46 AM 69.7°F20.9°C 67.6°F19.8°C 93% 2.4 mph W3.9 kmh W 6.0 mph9.7 kmh 29.82 in1009.8 mb 0.00 in0.0 mm 0.00 in0.0 mm 0.28 in7.1 mm
11:51 AM 69.7°F20.9°C 67.2°F19.6°C 92% 2.4 mph WSW3.9 kmh WSW 6.0 mph9.7 kmh 29.82 in1009.8 mb 0.00 in0.0 mm 0.00 in0.0 mm 0.28 in7.1 mm
11:56 AM 69.7°F20.9°C 67.2°F19.6°C 92% 2.6 mph W4.2 kmh W 6.0 mph9.7 kmh 29.81 in1009.5 mb 0.00 in0.0 mm 0.00 in0.0 mm 0.28 in7.1 mm
12:01 PM 69.8°F21.0°C 67.3°F19.6°C 92% 1.6 mph WSW2.6 kmh WSW 6.0 mph9.7 kmh 29.81 in1009.5 mb 0.00 in0.0 mm 0.00 in0.0 mm 0.28 in7.1 mm
12:06 PM 69.8°F21.0°C 64.4°F18.0°C 83% 3.2 mph W5.1 kmh W 8.0 mph12.9 kmh 29.81 in1009.5 mb 0.00 in0.0 mm 0.00 in0.0 mm 0.28 in7.1 mm
12:11 PM 70.1°F21.2°C 64.0°F17.8°C 81% 4.8 mph WSW7.7 kmh WSW 8.0 mph12.9 kmh 29.81 in1009.5 mb 0.00 in0.0 mm 0.00 in0.0 mm 0.28 in7.1 mm
12:16 PM 70.4°F21.3°C 62.5°F16.9°C 76% 1.8 mph WSW2.9 kmh WSW 8.0 mph12.9 kmh 29.81 in1009.5 mb 0.00 in0.0 mm 0.00 in0.0 mm 0.28 in7.1 mm
12:21 PM 70.5°F21.4°C 62.2°F16.8°C 75% 1.1 mph WSW1.8 kmh WSW 8.0 mph12.9 kmh 29.81 in1009.5 mb 0.00 in0.0 mm 0.00 in0.0 mm 0.28 in7.1 mm
12:26 PM 70.6°F21.4°C 61.1°F16.2°C 72% 4.6 mph WSW7.4 kmh WSW 12.0 mph19.3 kmh 29.80 in1009.1 mb 0.00 in0.0 mm 0.00 in0.0 mm 0.28 in7.1 mm
12:31 PM 70.7°F21.5°C 61.8°F16.6°C 73% 1.6 mph WSW2.6 kmh WSW 12.0 mph19.3 kmh 29.80 in1009.1 mb 0.00 in0.0 mm 0.00 in0.0 mm 0.28 in7.1 mm
12:36 PM 70.8°F21.6°C 61.5°F16.4°C 72% 1.6 mph W2.6 kmh W 12.0 mph19.3 kmh 29.80 in1009.1 mb 0.00 in0.0 mm 0.00 in0.0 mm 0.28 in7.1 mm
12:41 PM 70.9°F21.6°C 61.2°F16.2°C 71% 2.2 mph WSW3.5 kmh WSW 12.0 mph19.3 kmh 29.79 in1008.8 mb 0.00 in0.0 mm 0.00 in0.0 mm 0.28 in7.1 mm
12:46 PM 71.1°F21.7°C 60.6°F15.9°C 69% 3.5 mph WSW5.6 kmh WSW 8.0 mph12.9 kmh 29.78 in1008.5 mb 0.00 in0.0 mm 0.00 in0.0 mm 0.28 in7.1 mm
12:51 PM 71.2°F21.8°C 61.1°F16.2°C 70% 3.0 mph W4.8 kmh W 8.0 mph12.9 kmh 29.78 in1008.5 mb 0.00 in0.0 mm 0.00 in0.0 mm 0.28 in7.1 mm
12:56 PM 71.3°F21.8°C 60.0°F15.6°C 67% 3.7 mph W6.0 kmh W 9.0 mph14.5 kmh 29.78 in1008.5 mb 0.00 in0.0 mm 0.00 in0.0 mm 0.28 in7.1 mm
01:00 PM 71.3°F21.8°C 60.4°F15.8°C 68% 2.2 mph WSW3.5 kmh WSW 9.0 mph14.5 kmh 29.78 in1008.5 mb 0.00 in0.0 mm 0.00 in0.0 mm 0.28 in7.1 mm
01:05 PM 71.4°F21.9°C 61.3°F16.3°C 70% 3.5 mph SW5.6 kmh SW 9.0 mph14.5 kmh 29.78 in1008.5 mb 0.00 in0.0 mm 0.00 in0.0 mm 0.28 in7.1 mm
01:09 PM 71.2°F21.8°C 60.7°F15.9°C 69% 3.0 mph SW4.8 kmh SW 9.0 mph14.5 kmh 29.77 in1008.1 mb 0.00 in0.0 mm 0.00 in0.0 mm 0.28 in7.1 mm
01:14 PM 71.1°F21.7°C 61.4°F16.3°C 71% 1.5 mph SW2.4 kmh SW 7.0 mph11.3 kmh 29.77 in1008.1 mb 0.00 in0.0 mm 0.00 in0.0 mm 0.28 in7.1 mm
01:20 PM 71.3°F21.8°C 62.4°F16.9°C 73% 1.0 mph SSE1.6 kmh SSE 8.0 mph12.9 kmh 29.77 in1008.1 mb 0.00 in0.0 mm 0.00 in0.0 mm 0.28 in7.1 mm
01:25 PM 71.9°F22.2°C 62.2°F16.8°C 71% 1.0 mph WSW1.6 kmh WSW 8.0 mph12.9 kmh 29.76 in1007.8 mb 0.00 in0.0 mm 0.00 in0.0 mm 0.28 in7.1 mm
01:30 PM 72.3°F22.4°C 61.3°F16.3°C 68% 2.2 mph SW3.5 kmh SW 8.0 mph12.9 kmh 29.76 in1007.8 mb 0.00 in0.0 mm 0.00 in0.0 mm 0.28 in7.1 mm
01:35 PM 72.4°F22.4°C 61.8°F16.6°C 69% 2.7 mph SW4.3 kmh SW 8.0 mph12.9 kmh 29.76 in1007.8 mb 0.00 in0.0 mm 0.00 in0.0 mm 0.28 in7.1 mm
01:40 PM 72.5°F22.5°C 61.1°F16.2°C 67% 3.2 mph WSW5.1 kmh WSW 12.0 mph19.3 kmh 29.76 in1007.8 mb 0.00 in0.0 mm 0.00 in0.0 mm 0.28 in7.1 mm
01:45 PM 72.2°F22.3°C 59.3°F15.2°C 64% 4.4 mph SW7.1 kmh SW 12.0 mph19.3 kmh 29.76 in1007.8 mb 0.00 in0.0 mm 0.00 in0.0 mm 0.28 in7.1 mm
01:50 PM 72.0°F22.2°C 60.0°F15.6°C 66% 3.7 mph SW6.0 kmh SW 12.0 mph19.3 kmh 29.75 in1007.5 mb 0.00 in0.0 mm 0.00 in0.0 mm 0.28 in7.1 mm
01:55 PM 71.8°F22.1°C 58.1°F14.5°C 62% 4.0 mph WSW6.4 kmh WSW 12.0 mph19.3 kmh 29.75 in1007.5 mb 0.00 in0.0 mm 0.00 in0.0 mm 0.28 in7.1 mm
02:00 PM 71.9°F22.2°C 59.1°F15.1°C 64% 5.8 mph SW9.3 kmh SW 11.0 mph17.7 kmh 29.75 in1007.5 mb 0.00 in0.0 mm 0.00 in0.0 mm 0.28 in7.1 mm
02:05 PM 72.0°F22.2°C 58.0°F14.4°C 61% 4.0 mph WSW6.4 kmh WSW 11.0 mph17.7 kmh 29.76 in1007.8 mb 0.00 in0.0 mm 0.00 in0.0 mm 0.28 in7.1 mm
02:10 PM 72.0°F22.2°C 58.0°F14.4°C 61% 3.9 mph WSW6.3 kmh WSW 11.0 mph17.7 kmh 29.76 in1007.8 mb 0.00 in0.0 mm 0.00 in0.0 mm 0.28 in7.1 mm
02:15 PM 72.1°F22.3°C 58.1°F14.5°C 61% 3.1 mph WSW5.0 kmh WSW 11.0 mph17.7 kmh 29.76 in1007.8 mb 0.00 in0.0 mm 0.00 in0.0 mm 0.28 in7.1 mm
02:20 PM 72.2°F22.3°C 58.2°F14.6°C 61% 3.4 mph WSW5.5 kmh WSW 11.0 mph17.7 kmh 29.76 in1007.8 mb 0.00 in0.0 mm 0.00 in0.0 mm 0.28 in7.1 mm
02:25 PM 72.5°F22.5°C 58.9°F14.9°C 62% 2.8 mph WSW4.5 kmh WSW 11.0 mph17.7 kmh 29.75 in1007.5 mb 0.00 in0.0 mm 0.00 in0.0 mm 0.28 in7.1 mm
02:30 PM 72.8°F22.7°C 58.8°F14.9°C 61% 3.4 mph SW5.5 kmh SW 11.0 mph17.7 kmh 29.75 in1007.5 mb 0.00 in0.0 mm 0.00 in0.0 mm 0.28 in7.1 mm
02:35 PM 72.9°F22.7°C 57.4°F14.1°C 58% 4.1 mph SW6.6 kmh SW 8.0 mph12.9 kmh 29.75 in1007.5 mb 0.00 in0.0 mm 0.00 in0.0 mm 0.28 in7.1 mm
02:40 PM 73.0°F22.8°C 55.0°F12.8°C 53% 3.8 mph WSW6.1 kmh WSW 12.0 mph19.3 kmh 29.75 in1007.5 mb 0.00 in0.0 mm 0.00 in0.0 mm 0.28 in7.1 mm
02:45 PM 73.2°F22.9°C 54.5°F12.5°C 52% 3.2 mph WSW5.1 kmh WSW 12.0 mph19.3 kmh 29.75 in1007.5 mb 0.00 in0.0 mm 0.00 in0.0 mm 0.28 in7.1 mm
02:50 PM 73.3°F22.9°C 53.0°F11.7°C 49% 6.0 mph SW9.7 kmh SW 14.0 mph22.5 kmh 29.76 in1007.8 mb 0.00 in0.0 mm 0.00 in0.0 mm 0.28 in7.1 mm
02:55 PM 73.2°F22.9°C 52.4°F11.3°C 48% 6.7 mph SW10.8 kmh SW 14.0 mph22.5 kmh 29.76 in1007.8 mb 0.00 in0.0 mm 0.00 in0.0 mm 0.28 in7.1 mm
03:00 PM 73.2°F22.9°C 52.9°F11.6°C 49% 4.6 mph SW7.4 kmh SW 15.0 mph24.1 kmh 29.76 in1007.8 mb 0.00 in0.0 mm 0.00 in0.0 mm 0.28 in7.1 mm
03:05 PM 73.2°F22.9°C 53.5°F11.9°C 50% 3.7 mph W6.0 kmh W 15.0 mph24.1 kmh 29.76 in1007.8 mb 0.00 in0.0 mm 0.00 in0.0 mm 0.28 in7.1 mm
03:10 PM 73.1°F22.8°C 54.5°F12.5°C 52% 5.0 mph WSW8.0 kmh WSW 15.0 mph24.1 kmh 29.76 in1007.8 mb 0.00 in0.0 mm 0.00 in0.0 mm 0.28 in7.1 mm
03:15 PM 72.9°F22.7°C 55.4°F13.0°C 54% 1.3 mph WSW2.1 kmh WSW 11.0 mph17.7 kmh 29.76 in1007.8 mb 0.00 in0.0 mm 0.00 in0.0 mm 0.28 in7.1 mm
03:20 PM 73.4°F23.0°C 56.4°F13.6°C 55% 1.4 mph WSW2.3 kmh WSW 11.0 mph17.7 kmh 29.76 in1007.8 mb 0.00 in0.0 mm 0.00 in0.0 mm 0.28 in7.1 mm
03:25 PM 73.5°F23.1°C 55.4°F13.0°C 53% 4.4 mph SW7.1 kmh SW 11.0 mph17.7 kmh 29.77 in1008.1 mb 0.00 in0.0 mm 0.00 in0.0 mm 0.28 in7.1 mm
03:30 PM 73.3°F22.9°C 55.3°F12.9°C 53% 5.0 mph WSW8.0 kmh WSW 9.0 mph14.5 kmh 29.77 in1008.1 mb 0.00 in0.0 mm 0.00 in0.0 mm 0.28 in7.1 mm
03:35 PM 73.4°F23.0°C 55.9°F13.3°C 54% 3.3 mph SW5.3 kmh SW 9.0 mph14.5 kmh 29.77 in1008.1 mb 0.00 in0.0 mm 0.00 in0.0 mm 0.28 in7.1 mm
03:40 PM 73.7°F23.2°C 57.0°F13.9°C 56% 2.0 mph WSW3.2 kmh WSW 9.0 mph14.5 kmh 29.77 in1008.1 mb 0.00 in0.0 mm 0.00 in0.0 mm 0.28 in7.1 mm
03:45 PM 73.9°F23.3°C 58.2°F14.6°C 58% 1.0 mph WSW1.6 kmh WSW 9.0 mph14.5 kmh 29.77 in1008.1 mb 0.00 in0.0 mm 0.00 in0.0 mm 0.28 in7.1 mm
03:50 PM 74.1°F23.4°C 57.4°F14.1°C 56% 3.2 mph SW5.1 kmh SW 8.0 mph12.9 kmh 29.77 in1008.1 mb 0.00 in0.0 mm 0.00 in0.0 mm 0.28 in7.1 mm
03:55 PM 74.0°F23.3°C 57.3°F14.1°C 56% 2.2 mph WSW3.5 kmh WSW 8.0 mph12.9 kmh 29.77 in1008.1 mb 0.00 in0.0 mm 0.00 in0.0 mm 0.28 in7.1 mm
04:00 PM 73.9°F23.3°C 55.7°F13.2°C 53% 2.7 mph SW4.3 kmh SW 8.0 mph12.9 kmh 29.77 in1008.1 mb 0.00 in0.0 mm 0.00 in0.0 mm 0.28 in7.1 mm
04:05 PM 73.9°F23.3°C 55.7°F13.2°C 53% 1.4 mph WSW2.3 kmh WSW 8.0 mph12.9 kmh 29.77 in1008.1 mb 0.00 in0.0 mm 0.00 in0.0 mm 0.28 in7.1 mm
04:10 PM 73.7°F23.2°C 54.5°F12.5°C 51% 1.7 mph WSW2.7 kmh WSW 12.0 mph19.3 kmh 29.77 in1008.1 mb 0.00 in0.0 mm 0.00 in0.0 mm 0.28 in7.1 mm
04:15 PM 73.6°F23.1°C 53.9°F12.2°C 50% 3.7 mph WSW6.0 kmh WSW 12.0 mph19.3 kmh 29.77 in1008.1 mb 0.00 in0.0 mm 0.00 in0.0 mm 0.28 in7.1 mm
04:20 PM 73.6°F23.1°C 53.3°F11.8°C 49% 3.1 mph WSW5.0 kmh WSW 12.0 mph19.3 kmh 29.77 in1008.1 mb 0.00 in0.0 mm 0.00 in0.0 mm 0.28 in7.1 mm
04:25 PM 73.6°F23.1°C 53.3°F11.8°C 49% 1.0 mph WSW1.6 kmh WSW 8.0 mph12.9 kmh 29.77 in1008.1 mb 0.00 in0.0 mm 0.00 in0.0 mm 0.28 in7.1 mm
04:30 PM 73.6°F23.1°C 52.1°F11.2°C 47% 2.7 mph SW4.3 kmh SW 8.0 mph12.9 kmh 29.77 in1008.1 mb 0.00 in0.0 mm 0.00 in0.0 mm 0.28 in7.1 mm
04:35 PM 73.3°F22.9°C 51.3°F10.7°C 46% 2.5 mph SW4.0 kmh SW 8.0 mph12.9 kmh 29.78 in1008.5 mb 0.00 in0.0 mm 0.00 in0.0 mm 0.28 in7.1 mm
04:40 PM 73.1°F22.8°C 51.7°F10.9°C 47% 3.4 mph SW5.5 kmh SW 7.0 mph11.3 kmh 29.78 in1008.5 mb 0.00 in0.0 mm 0.00 in0.0 mm 0.28 in7.1 mm
04:45 PM 72.9°F22.7°C 51.5°F10.8°C 47% 3.3 mph WSW5.3 kmh WSW 8.0 mph12.9 kmh 29.78 in1008.5 mb 0.00 in0.0 mm 0.00 in0.0 mm 0.28 in7.1 mm
04:50 PM 72.7°F22.6°C 50.7°F10.4°C 46% 3.3 mph SW5.3 kmh SW 8.0 mph12.9 kmh 29.78 in1008.5 mb 0.00 in0.0 mm 0.00 in0.0 mm 0.28 in7.1 mm
04:55 PM 72.4°F22.4°C 51.0°F10.6°C 47% 1.8 mph SW2.9 kmh SW 8.0 mph12.9 kmh 29.78 in1008.5 mb 0.00 in0.0 mm 0.00 in0.0 mm 0.28 in7.1 mm
05:00 PM 72.2°F22.3°C 50.9°F10.5°C 47% 2.6 mph WSW4.2 kmh WSW 8.0 mph12.9 kmh 29.79 in1008.8 mb 0.00 in0.0 mm 0.00 in0.0 mm 0.28 in7.1 mm
05:05 PM 71.7°F22.1°C 50.4°F10.2°C 47% 2.4 mph WSW3.9 kmh WSW 7.0 mph11.3 kmh 29.79 in1008.8 mb 0.00 in0.0 mm 0.00 in0.0 mm 0.28 in7.1 mm
05:10 PM 71.3°F21.8°C 50.6°F10.3°C 48% 2.7 mph SW4.3 kmh SW 8.0 mph12.9 kmh 29.79 in1008.8 mb 0.00 in0.0 mm 0.00 in0.0 mm 0.28 in7.1 mm
05:15 PM 70.9°F21.6°C 50.3°F10.2°C 48% 1.0 mph SW1.6 kmh SW 8.0 mph12.9 kmh 29.79 in1008.8 mb 0.00 in0.0 mm 0.00 in0.0 mm 0.28 in7.1 mm
05:20 PM 70.4°F21.3°C 50.4°F10.2°C 49% 1.4 mph WSW2.3 kmh WSW 8.0 mph12.9 kmh 29.80 in1009.1 mb 0.00 in0.0 mm 0.00 in0.0 mm 0.28 in7.1 mm
05:25 PM 70.1°F21.2°C 50.7°F10.4°C 50% 1.0 mph SW1.6 kmh SW 8.0 mph12.9 kmh 29.79 in1008.8 mb 0.00 in0.0 mm 0.00 in0.0 mm 0.28 in7.1 mm
05:30 PM 69.7°F20.9°C 50.3°F10.2°C 50% 1.4 mph WSW2.3 kmh WSW 7.0 mph11.3 kmh 29.79 in1008.8 mb 0.00 in0.0 mm 0.00 in0.0 mm 0.28 in7.1 mm
05:35 PM 69.4°F20.8°C 50.0°F10.0°C 50% 1.7 mph SW2.7 kmh SW 7.0 mph11.3 kmh 29.80 in1009.1 mb 0.00 in0.0 mm 0.00 in0.0 mm 0.28 in7.1 mm
05:40 PM 69.0°F20.6°C 50.2°F10.1°C 51% 1.3 mph WSW2.1 kmh WSW 4.0 mph6.4 kmh 29.80 in1009.1 mb 0.00 in0.0 mm 0.00 in0.0 mm 0.28 in7.1 mm
05:45 PM 68.7°F20.4°C 50.4°F10.2°C 52% 1.9 mph SW3.1 kmh SW 4.0 mph6.4 kmh 29.80 in1009.1 mb 0.00 in0.0 mm 0.00 in0.0 mm 0.28 in7.1 mm
05:50 PM 68.3°F20.2°C 50.1°F10.1°C 52% 1.0 mph SW1.6 kmh SW 4.0 mph6.4 kmh 29.80 in1009.1 mb 0.00 in0.0 mm 0.00 in0.0 mm 0.28 in7.1 mm
05:55 PM 68.1°F20.1°C 49.4°F9.7°C 51% 1.7 mph SW2.7 kmh SW 4.0 mph6.4 kmh 29.80 in1009.1 mb 0.00 in0.0 mm 0.00 in0.0 mm 0.28 in7.1 mm
06:00 PM 67.9°F19.9°C 48.6°F9.2°C 50% 1.6 mph WSW2.6 kmh WSW 4.0 mph6.4 kmh 29.80 in1009.1 mb 0.00 in0.0 mm 0.00 in0.0 mm 0.28 in7.1 mm
06:05 PM 67.9°F19.9°C 48.1°F8.9°C 49% 1.0 mph WSW1.6 kmh WSW 4.0 mph6.4 kmh 29.80 in1009.1 mb 0.00 in0.0 mm 0.00 in0.0 mm 0.28 in7.1 mm
06:10 PM 67.8°F19.9°C 48.5°F9.2°C 50% 1.0 mph SW1.6 kmh SW 4.0 mph6.4 kmh 29.80 in1009.1 mb 0.00 in0.0 mm 0.00 in0.0 mm 0.28 in7.1 mm
06:15 PM 67.7°F19.8°C 48.4°F9.1°C 50% 1.0 mph WSW1.6 kmh WSW 4.0 mph6.4 kmh 29.80 in1009.1 mb 0.00 in0.0 mm 0.00 in0.0 mm 0.28 in7.1 mm
06:20 PM 67.7°F19.8°C 48.4°F9.1°C 50% 1.0 mph WSW1.6 kmh WSW 3.0 mph4.8 kmh 29.81 in1009.5 mb 0.00 in0.0 mm 0.00 in0.0 mm 0.28 in7.1 mm
06:25 PM 67.5°F19.7°C 48.8°F9.3°C 51% 1.3 mph SW2.1 kmh SW 3.0 mph4.8 kmh 29.80 in1009.1 mb 0.00 in0.0 mm 0.00 in0.0 mm 0.28 in7.1 mm
06:30 PM 67.0°F19.4°C 49.4°F9.7°C 53% Calm Calm 2.0 mph3.2 kmh 29.81 in1009.5 mb 0.00 in0.0 mm 0.00 in0.0 mm 0.28 in7.1 mm
06:35 PM 66.5°F19.2°C 49.9°F9.9°C 55% 1.0 mph SW1.6 kmh SW 3.0 mph4.8 kmh 29.81 in1009.5 mb 0.00 in0.0 mm 0.00 in0.0 mm 0.28 in7.1 mm
06:40 PM 65.9°F18.8°C 49.9°F9.9°C 56% 1.0 mph SW1.6 kmh SW 3.0 mph4.8 kmh 29.81 in1009.5 mb 0.00 in0.0 mm 0.00 in0.0 mm 0.28 in7.1 mm
06:45 PM 65.4°F18.6°C 49.9°F9.9°C 57% 1.0 mph SW1.6 kmh SW 3.0 mph4.8 kmh 29.81 in1009.5 mb 0.00 in0.0 mm 0.00 in0.0 mm 0.28 in7.1 mm
06:50 PM 65.3°F18.5°C 49.3°F9.6°C 56% 1.6 mph SW2.6 kmh SW 3.0 mph4.8 kmh 29.82 in1009.8 mb 0.00 in0.0 mm 0.00 in0.0 mm 0.28 in7.1 mm
06:55 PM 65.4°F18.6°C 48.9°F9.4°C 55% 1.5 mph SW2.4 kmh SW 5.0 mph8.0 kmh 29.82 in1009.8 mb 0.00 in0.0 mm 0.00 in0.0 mm 0.28 in7.1 mm
06:59 PM 65.6°F18.7°C 49.1°F9.5°C 55% 1.5 mph SW2.4 kmh SW 5.0 mph8.0 kmh 29.82 in1009.8 mb 0.00 in0.0 mm 0.00 in0.0 mm 0.28 in7.1 mm
07:04 PM 65.3°F18.5°C 49.3°F9.6°C 56% 1.0 mph SW1.6 kmh SW 5.0 mph8.0 kmh 29.82 in1009.8 mb 0.00 in0.0 mm 0.00 in0.0 mm 0.28 in7.1 mm
07:09 PM 65.0°F18.3°C 49.5°F9.7°C 57% 1.0 mph SW1.6 kmh SW 4.0 mph6.4 kmh 29.82 in1009.8 mb 0.00 in0.0 mm 0.00 in0.0 mm 0.28 in7.1 mm
07:14 PM 64.6°F18.1°C 49.6°F9.8°C 58% Calm Calm 3.0 mph4.8 kmh 29.82 in1009.8 mb 0.00 in0.0 mm 0.00 in0.0 mm 0.28 in7.1 mm
07:19 PM 64.1°F17.8°C 49.6°F9.8°C 59% 1.0 mph SW1.6 kmh SW 3.0 mph4.8 kmh 29.82 in1009.8 mb 0.00 in0.0 mm 0.00 in0.0 mm 0.28 in7.1 mm
07:24 PM 63.9°F17.7°C 49.4°F9.7°C 59% 1.1 mph SW1.8 kmh SW 2.0 mph3.2 kmh 29.83 in1010.2 mb 0.00 in0.0 mm 0.00 in0.0 mm 0.28 in7.1 mm
07:29 PM 63.7°F17.6°C 49.7°F9.8°C 60% 1.0 mph SW1.6 kmh SW 2.0 mph3.2 kmh 29.82 in1009.8 mb 0.00 in0.0 mm 0.00 in0.0 mm 0.28 in7.1 mm
07:34 PM 63.5°F17.5°C 50.0°F10.0°C 61% 1.0 mph SW1.6 kmh SW 2.0 mph3.2 kmh 29.83 in1010.2 mb 0.00 in0.0 mm 0.00 in0.0 mm 0.28 in7.1 mm
07:39 PM 63.5°F17.5°C 50.0°F10.0°C 61% 1.0 mph SW1.6 kmh SW 2.0 mph3.2 kmh 29.83 in1010.2 mb 0.00 in0.0 mm 0.00 in0.0 mm 0.28 in7.1 mm
07:44 PM 63.4°F17.4°C 50.3°F10.2°C 62% 1.0 mph SW1.6 kmh SW 2.0 mph3.2 kmh 29.83 in1010.2 mb 0.00 in0.0 mm 0.00 in0.0 mm 0.28 in7.1 mm
07:49 PM 63.1°F17.3°C 50.0°F10.0°C 62% 1.0 mph SW1.6 kmh SW 2.0 mph3.2 kmh 29.83 in1010.2 mb 0.00 in0.0 mm 0.00 in0.0 mm 0.28 in7.1 mm
07:54 PM 62.9°F17.2°C 50.3°F10.2°C 63% 1.0 mph SW1.6 kmh SW 2.0 mph3.2 kmh 29.83 in1010.2 mb 0.00 in0.0 mm 0.00 in0.0 mm 0.28 in7.1 mm
07:59 PM 62.5°F16.9°C 50.2°F10.1°C 64% 1.0 mph SW1.6 kmh SW 2.0 mph3.2 kmh 29.83 in1010.2 mb 0.00 in0.0 mm 0.00 in0.0 mm 0.28 in7.1 mm
08:04 PM 62.1°F16.7°C 50.3°F10.2°C 65% 1.0 mph SW1.6 kmh SW 2.0 mph3.2 kmh 29.84 in1010.5 mb 0.00 in0.0 mm 0.00 in0.0 mm 0.28 in7.1 mm
08:09 PM 61.8°F16.6°C 50.5°F10.3°C 66% 1.3 mph SW2.1 kmh SW 2.0 mph3.2 kmh 29.83 in1010.2 mb 0.00 in0.0 mm 0.00 in0.0 mm 0.28 in7.1 mm
08:14 PM 61.7°F16.5°C 50.8°F10.4°C 67% Calm Calm 2.0 mph3.2 kmh 29.84 in1010.5 mb 0.00 in0.0 mm 0.00 in0.0 mm 0.28 in7.1 mm
08:19 PM 61.7°F16.5°C 51.2°F10.7°C 68% 1.4 mph SW2.3 kmh SW 2.0 mph3.2 kmh 29.83 in1010.2 mb 0.00 in0.0 mm 0.00 in0.0 mm 0.28 in7.1 mm
08:24 PM 61.7°F16.5°C 51.6°F10.9°C 69% 1.3 mph SW2.1 kmh SW 3.0 mph4.8 kmh 29.83 in1010.2 mb 0.00 in0.0 mm 0.00 in0.0 mm 0.28 in7.1 mm
08:29 PM 61.8°F16.6°C 51.7°F10.9°C 69% 1.1 mph SW1.8 kmh SW 3.0 mph4.8 kmh 29.84 in1010.5 mb 0.00 in0.0 mm 0.00 in0.0 mm 0.28 in7.1 mm
08:34 PM 61.9°F16.6°C 51.8°F11.0°C 69% 1.8 mph SW2.9 kmh SW 4.0 mph6.4 kmh 29.83 in1010.2 mb 0.00 in0.0 mm 0.00 in0.0 mm 0.28 in7.1 mm
08:39 PM 62.0°F16.7°C 51.9°F11.1°C 69% 1.5 mph SW2.4 kmh SW 4.0 mph6.4 kmh 29.83 in1010.2 mb 0.00 in0.0 mm 0.00 in0.0 mm 0.28 in7.1 mm
08:44 PM 62.0°F16.7°C 51.7°F10.9°C 69% 1.5 mph SW2.4 kmh SW 4.0 mph6.4 kmh 29.83 in1010.2 mb 0.00 in0.0 mm 0.00 in0.0 mm 0.28 in7.1 mm
08:49 PM 61.9°F16.6°C 51.6°F10.9°C 69% 1.7 mph SW2.7 kmh SW 4.0 mph6.4 kmh 29.83 in1010.2 mb 0.00 in0.0 mm 0.00 in0.0 mm 0.28 in7.1 mm
08:54 PM 61.7°F16.5°C 51.6°F10.9°C 69% 1.6 mph SW2.6 kmh SW 3.0 mph4.8 kmh 29.83 in1010.2 mb 0.00 in0.0 mm 0.00 in0.0 mm 0.28 in7.1 mm
08:59 PM 61.6°F16.4°C 51.5°F10.8°C 69% 1.7 mph WSW2.7 kmh WSW 3.0 mph4.8 kmh 29.83 in1010.2 mb 0.00 in0.0 mm 0.00 in0.0 mm 0.28 in7.1 mm
09:04 PM 61.6°F16.4°C 51.5°F10.8°C 69% 2.3 mph SW3.7 kmh SW 6.0 mph9.7 kmh 29.83 in1010.2 mb 0.00 in0.0 mm 0.00 in0.0 mm 0.28 in7.1 mm
09:09 PM 61.6°F16.4°C 51.5°F10.8°C 69% 2.1 mph SW3.4 kmh SW 6.0 mph9.7 kmh 29.83 in1010.2 mb 0.00 in0.0 mm 0.00 in0.0 mm 0.28 in7.1 mm
09:14 PM 61.6°F16.4°C 51.5°F10.8°C 69% 1.5 mph SW2.4 kmh SW 6.0 mph9.7 kmh 29.84 in1010.5 mb 0.00 in0.0 mm 0.00 in0.0 mm 0.28 in7.1 mm
09:19 PM 61.6°F16.4°C 51.5°F10.8°C 69% 1.3 mph WSW2.1 kmh WSW 6.0 mph9.7 kmh 29.84 in1010.5 mb 0.00 in0.0 mm 0.00 in0.0 mm 0.28 in7.1 mm
09:24 PM 61.6°F16.4°C 51.1°F10.6°C 68% 1.5 mph WSW2.4 kmh WSW 4.0 mph6.4 kmh 29.84 in1010.5 mb 0.00 in0.0 mm 0.00 in0.0 mm 0.28 in7.1 mm
09:29 PM 61.7°F16.5°C 51.2°F10.7°C 68% 1.6 mph SW2.6 kmh SW 4.0 mph6.4 kmh 29.84 in1010.5 mb 0.00 in0.0 mm 0.00 in0.0 mm 0.28 in7.1 mm
09:34 PM 61.6°F16.4°C 51.1°F10.6°C 68% 1.0 mph WSW1.6 kmh WSW 3.0 mph4.8 kmh 29.84 in1010.5 mb 0.00 in0.0 mm 0.00 in0.0 mm 0.28 in7.1 mm
09:39 PM 61.5°F16.4°C 51.0°F10.6°C 68% 1.3 mph SW2.1 kmh SW 4.0 mph6.4 kmh 29.84 in1010.5 mb 0.00 in0.0 mm 0.00 in0.0 mm 0.28 in7.1 mm
09:44 PM 61.5°F16.4°C 51.0°F10.6°C 68% 1.6 mph SW2.6 kmh SW 4.0 mph6.4 kmh 29.84 in1010.5 mb 0.00 in0.0 mm 0.00 in0.0 mm 0.28 in7.1 mm
09:49 PM 61.3°F16.3°C 51.2°F10.7°C 69% 2.1 mph SW3.4 kmh SW 4.0 mph6.4 kmh 29.85 in1010.8 mb 0.00 in0.0 mm 0.00 in0.0 mm 0.28 in7.1 mm
09:54 PM 60.9°F16.1°C 51.2°F10.7°C 70% 1.1 mph WSW1.8 kmh WSW 4.0 mph6.4 kmh 29.85 in1010.8 mb 0.00 in0.0 mm 0.00 in0.0 mm 0.28 in7.1 mm
09:59 PM 60.8°F16.0°C 51.1°F10.6°C 70% 1.0 mph WSW1.6 kmh WSW 4.0 mph6.4 kmh 29.85 in1010.8 mb 0.00 in0.0 mm 0.00 in0.0 mm 0.28 in7.1 mm
10:04 PM 60.6°F15.9°C 50.9°F10.5°C 70% 1.5 mph WSW2.4 kmh WSW 4.0 mph6.4 kmh 29.85 in1010.8 mb 0.00 in0.0 mm 0.00 in0.0 mm 0.28 in7.1 mm
10:09 PM 60.5°F15.8°C 50.7°F10.4°C 70% 1.6 mph SW2.6 kmh SW 4.0 mph6.4 kmh 29.85 in1010.8 mb 0.00 in0.0 mm 0.00 in0.0 mm 0.28 in7.1 mm
10:14 PM 60.4°F15.8°C 50.6°F10.3°C 70% 2.4 mph SW3.9 kmh SW 4.0 mph6.4 kmh 29.85 in1010.8 mb 0.00 in0.0 mm 0.00 in0.0 mm 0.28 in7.1 mm
10:19 PM 60.4°F15.8°C 50.6°F10.3°C 70% 1.4 mph WSW2.3 kmh WSW 4.0 mph6.4 kmh 29.85 in1010.8 mb 0.00 in0.0 mm 0.00 in0.0 mm 0.28 in7.1 mm
10:24 PM 60.6°F15.9°C 50.4°F10.2°C 69% 1.2 mph WSW1.9 kmh WSW 4.0 mph6.4 kmh 29.85 in1010.8 mb 0.00 in0.0 mm 0.00 in0.0 mm 0.28 in7.1 mm
10:29 PM 60.9°F16.1°C 50.3°F10.2°C 68% 2.8 mph WSW4.5 kmh WSW 7.0 mph11.3 kmh 29.86 in1011.2 mb 0.00 in0.0 mm 0.00 in0.0 mm 0.28 in7.1 mm
10:34 PM 60.7°F15.9°C 50.5°F10.3°C 69% 1.5 mph SW2.4 kmh SW 7.0 mph11.3 kmh 29.86 in1011.2 mb 0.00 in0.0 mm 0.00 in0.0 mm 0.28 in7.1 mm
10:39 PM 60.0°F15.6°C 50.6°F10.3°C 71% 1.3 mph SW2.1 kmh SW 7.0 mph11.3 kmh 29.86 in1011.2 mb 0.00 in0.0 mm 0.00 in0.0 mm 0.28 in7.1 mm
10:44 PM 59.3°F15.2°C 51.0°F10.6°C 74% 1.6 mph SW2.6 kmh SW 7.0 mph11.3 kmh 29.86 in1011.2 mb 0.00 in0.0 mm 0.00 in0.0 mm 0.28 in7.1 mm
10:49 PM 58.5°F14.7°C 51.3°F10.7°C 77% 1.3 mph SW2.1 kmh SW 3.0 mph4.8 kmh 29.86 in1011.2 mb 0.00 in0.0 mm 0.00 in0.0 mm 0.28 in7.1 mm
10:54 PM 57.8°F14.3°C 51.3°F10.7°C 79% 1.0 mph SW1.6 kmh SW 3.0 mph4.8 kmh 29.86 in1011.2 mb 0.00 in0.0 mm 0.00 in0.0 mm 0.28 in7.1 mm
10:59 PM 57.2°F14.0°C 51.1°F10.6°C 80% 1.2 mph SW1.9 kmh SW 3.0 mph4.8 kmh 29.86 in1011.2 mb 0.00 in0.0 mm 0.00 in0.0 mm 0.28 in7.1 mm
11:04 PM 57.4°F14.1°C 51.3°F10.7°C 80% 1.3 mph SW2.1 kmh SW 4.0 mph6.4 kmh 29.86 in1011.2 mb 0.00 in0.0 mm 0.00 in0.0 mm 0.28 in7.1 mm
11:09 PM 57.5°F14.2°C 51.1°F10.6°C 79% Calm Calm 4.0 mph6.4 kmh 29.86 in1011.2 mb 0.00 in0.0 mm 0.00 in0.0 mm 0.28 in7.1 mm
11:14 PM 57.3°F14.1°C 51.2°F10.7°C 80% 1.0 mph SW1.6 kmh SW 4.0 mph6.4 kmh 29.86 in1011.2 mb 0.00 in0.0 mm 0.00 in0.0 mm 0.28 in7.1 mm
11:19 PM 57.1°F13.9°C 51.4°F10.8°C 81% 1.2 mph SW1.9 kmh SW 4.0 mph6.4 kmh 29.86 in1011.2 mb 0.00 in0.0 mm 0.00 in0.0 mm 0.28 in7.1 mm
11:24 PM 57.1°F13.9°C 51.3°F10.7°C 81% 1.2 mph SW1.9 kmh SW 3.0 mph4.8 kmh 29.86 in1011.2 mb 0.00 in0.0 mm 0.00 in0.0 mm 0.28 in7.1 mm
11:29 PM 57.1°F13.9°C 51.4°F10.8°C 81% 1.4 mph SW2.3 kmh SW 3.0 mph4.8 kmh 29.86 in1011.2 mb 0.00 in0.0 mm 0.00 in0.0 mm 0.28 in7.1 mm
11:34 PM 56.8°F13.8°C 51.4°F10.8°C 82% 1.0 mph SW1.6 kmh SW 3.0 mph4.8 kmh 29.86 in1011.2 mb 0.00 in0.0 mm 0.00 in0.0 mm 0.28 in7.1 mm
11:39 PM 56.3°F13.5°C 51.2°F10.7°C 83% 1.8 mph SW2.9 kmh SW 4.0 mph6.4 kmh 29.86 in1011.2 mb 0.00 in0.0 mm 0.00 in0.0 mm 0.28 in7.1 mm
11:44 PM 56.1°F13.4°C 51.3°F10.7°C 84% 1.5 mph SW2.4 kmh SW 4.0 mph6.4 kmh 29.86 in1011.2 mb 0.00 in0.0 mm 0.00 in0.0 mm 0.28 in7.1 mm
11:49 PM 56.1°F13.4°C 51.7°F10.9°C 85% 1.0 mph SW1.6 kmh SW 4.0 mph6.4 kmh 29.86 in1011.2 mb 0.00 in0.0 mm 0.00 in0.0 mm 0.28 in7.1 mm
11:54 PM 56.1°F13.4°C 51.7°F10.9°C 85% 1.2 mph SW1.9 kmh SW 4.0 mph6.4 kmh 29.87 in1011.5 mb 0.00 in0.0 mm 0.00 in0.0 mm 0.28 in7.1 mm
11:59 PM 56.0°F13.3°C 51.6°F10.9°C 85% 1.0 mph SW1.6 kmh SW 4.0 mph6.4 kmh 29.87 in1011.5 mb 0.00 in0.0 mm 0.00 in0.0 mm 0.28 in7.1 mm